Time;durP1;ratioP1;P1;durP2;ratioP2;P2;SDS_P1;SDS_P2;PMS_P1;PMS_P2;Temp;Humidity;BMP_temperature;BMP_pressure;BME280_temperature;BME280_humidity;BME280_pressure;Samples;Min_cycle;Max_cycle;Signal;HPM_P1;HPM_P2
2021/07/16 00:02:23;;;;;;;8.60;5.80;;;;;;;;;;4973729;28;20061;-74
2021/07/16 00:04:49;;;;;;;7.13;5.38;;;;;;;;;;4956067;28;20114;-74
2021/07/16 00:07:14;;;;;;;7.15;5.65;;;;;;;;;;4985968;28;20050;-75
2021/07/16 00:09:40;;;;;;;8.27;5.07;;;;;;;;;;4975274;28;20034;-74
2021/07/16 00:12:06;;;;;;;10.35;6.53;;;;;;;;;;5007687;28;20426;-75
2021/07/16 00:14:32;;;;;;;10.70;5.30;;;;;;;;;;4992657;28;20041;-74
2021/07/16 00:16:59;;;;;;;11.82;5.95;;;;;;;;;;4975272;28;20049;-74
2021/07/16 00:19:24;;;;;;;6.80;5.10;;;;;;;;;;4993112;28;20029;-75
2021/07/16 00:21:50;;;;;;;5.53;4.78;;;;;;;;;;4994277;28;20364;-75
2021/07/16 00:24:16;;;;;;;8.55;5.63;;;;;;;;;;4978092;28;20029;-74
2021/07/16 00:26:42;;;;;;;9.98;5.82;;;;;;;;;;4974881;28;20046;-73
2021/07/16 00:29:08;;;;;;;10.32;6.57;;;;;;;;;;4992798;28;20108;-73
2021/07/16 00:31:35;;;;;;;7.10;5.68;;;;;;;;;;4992312;28;20080;-75
2021/07/16 00:34:01;;;;;;;12.98;6.15;;;;;;;;;;5007527;28;20030;-73
2021/07/16 00:36:27;;;;;;;9.00;6.53;;;;;;;;;;4992537;28;20027;-75
2021/07/16 00:38:52;;;;;;;11.27;7.38;;;;;;;;;;4992226;28;20510;-75
2021/07/16 00:41:18;;;;;;;11.35;7.82;;;;;;;;;;4992290;28;20034;-74
2021/07/16 00:43:43;;;;;;;11.45;7.43;;;;;;;;;;5007281;28;20479;-75
2021/07/16 00:46:09;;;;;;;8.30;6.45;;;;;;;;;;4992439;28;20034;-75
2021/07/16 00:48:34;;;;;;;10.82;7.10;;;;;;;;;;4992354;28;20034;-74
2021/07/16 00:51:00;;;;;;;8.52;5.85;;;;;;;;;;4991118;28;20034;-75
2021/07/16 00:53:26;;;;;;;15.35;7.55;;;;;;;;;;4974799;28;20545;-74
2021/07/16 00:55:51;;;;;;;17.10;7.35;;;;;;;;;;4974398;28;20054;-73
2021/07/16 00:58:17;;;;;;;8.15;5.57;;;;;;;;;;4991948;28;20360;-73
2021/07/16 01:00:43;;;;;;;8.57;5.78;;;;;;;;;;4991929;28;20053;-74
2021/07/16 01:03:10;;;;;;;12.80;5.63;;;;;;;;;;4990797;28;20033;-74
2021/07/16 01:05:35;;;;;;;8.75;6.25;;;;;;;;;;4990820;28;20053;-74
2021/07/16 01:08:02;;;;;;;7.97;5.90;;;;;;;;;;5006590;28;20038;-74
2021/07/16 01:10:28;;;;;;;11.30;6.30;;;;;;;;;;4974317;28;20022;-74
2021/07/16 01:12:54;;;;;;;12.63;7.43;;;;;;;;;;4990207;28;20022;-74
2021/07/16 01:15:22;;;;;;;12.50;6.60;;;;;;;;;;4992159;28;20430;-74
2021/07/16 01:17:48;;;;;;;12.25;6.53;;;;;;;;;;4991497;28;20081;-74
2021/07/16 01:20:17;;;;;;;11.48;6.68;;;;;;;;;;4991660;28;20038;-74
2021/07/16 01:22:44;;;;;;;9.50;5.88;;;;;;;;;;4991497;28;20062;-74
2021/07/16 01:25:17;;;;;;;9.93;6.55;;;;;;;;;;4991464;28;20069;-74
2021/07/16 01:27:45;;;;;;;10.43;5.63;;;;;;;;;;4990756;28;20029;-74
2021/07/16 01:30:12;;;;;;;8.65;5.75;;;;;;;;;;4992101;28;20022;-74
2021/07/16 01:32:40;;;;;;;15.80;7.22;;;;;;;;;;4973660;28;20026;-74
2021/07/16 01:35:07;;;;;;;11.35;6.10;;;;;;;;;;4991284;28;20105;-73
2021/07/16 01:37:33;;;;;;;9.10;6.28;;;;;;;;;;4973722;28;20026;-75
2021/07/16 01:40:00;;;;;;;9.32;5.32;;;;;;;;;;4991323;28;20138;-74
2021/07/16 01:42:40;;;;;;;11.20;6.30;;;;;;;;;;4991360;28;20395;-75
2021/07/16 01:45:12;;;;;;;12.82;6.68;;;;;;;;;;4973667;28;20022;-74
2021/07/16 01:47:41;;;;;;;14.95;6.07;;;;;;;;;;4973258;28;20057;-75
2021/07/16 01:50:07;;;;;;;16.25;6.35;;;;;;;;;;4991045;28;20037;-75
2021/07/16 01:52:35;;;;;;;8.93;6.30;;;;;;;;;;4973839;28;20720;-73
2021/07/16 01:55:01;;;;;;;10.45;5.78;;;;;;;;;;4990917;28;20077;-73
2021/07/16 01:57:26;;;;;;;10.38;5.68;;;;;;;;;;4991450;28;20026;-74
2021/07/16 01:59:52;;;;;;;12.75;5.22;;;;;;;;;;4973246;28;20038;-73
2021/07/16 02:02:17;;;;;;;5.90;5.30;;;;;;;;;;4990654;28;20076;-74
2021/07/16 02:04:43;;;;;;;9.75;5.93;;;;;;;;;;4990709;28;20042;-74
2021/07/16 02:07:09;;;;;;;16.08;5.45;;;;;;;;;;4990709;28;20050;-73
2021/07/16 02:09:34;;;;;;;8.63;5.78;;;;;;;;;;4991032;28;20034;-74
2021/07/16 02:12:00;;;;;;;11.98;5.95;;;;;;;;;;4990539;28;20030;-74
2021/07/16 02:14:27;;;;;;;9.55;5.55;;;;;;;;;;4990736;28;20081;-74
2021/07/16 02:16:54;;;;;;;11.75;4.88;;;;;;;;;;5005388;28;20030;-74
2021/07/16 02:19:24;;;;;;;6.95;5.03;;;;;;;;;;4990620;28;20088;-75
2021/07/16 02:21:50;;;;;;;8.73;4.88;;;;;;;;;;5005328;28;20058;-74
2021/07/16 02:24:15;;;;;;;5.88;4.88;;;;;;;;;;4972893;28;20085;-74
2021/07/16 02:26:41;;;;;;;9.77;5.32;;;;;;;;;;4972805;28;20579;-74
2021/07/16 02:29:06;;;;;;;11.40;5.43;;;;;;;;;;5005353;28;20068;-73
2021/07/16 02:31:33;;;;;;;9.13;5.47;;;;;;;;;;5005634;28;20054;-73
2021/07/16 02:33:58;;;;;;;10.45;5.32;;;;;;;;;;4972665;28;20109;-73
2021/07/16 02:36:24;;;;;;;11.00;5.25;;;;;;;;;;4990071;28;20199;-73
2021/07/16 02:38:50;;;;;;;18.15;6.75;;;;;;;;;;4972752;28;20478;-73
2021/07/16 02:41:16;;;;;;;9.95;5.25;;;;;;;;;;4990178;28;20533;-73
2021/07/16 02:43:42;;;;;;;12.07;5.35;;;;;;;;;;4989945;28;20027;-75
2021/07/16 02:46:07;;;;;;;10.73;5.35;;;;;;;;;;4972658;28;20018;-74
2021/07/16 02:48:34;;;;;;;7.78;5.35;;;;;;;;;;4990002;28;20026;-74
2021/07/16 02:51:01;;;;;;;8.70;5.90;;;;;;;;;;4972262;28;20080;-75
2021/07/16 02:53:27;;;;;;;13.02;5.68;;;;;;;;;;4989933;28;20447;-75
2021/07/16 02:55:53;;;;;;;9.70;5.47;;;;;;;;;;4989965;28;20101;-75
2021/07/16 02:58:19;;;;;;;14.10;6.50;;;;;;;;;;4972629;28;20108;-73
2021/07/16 03:00:45;;;;;;;10.40;6.05;;;;;;;;;;4972792;28;20469;-75
2021/07/16 03:03:11;;;;;;;10.98;5.35;;;;;;;;;;4989934;28;20034;-75
2021/07/16 03:05:37;;;;;;;10.13;5.53;;;;;;;;;;4989866;28;20033;-73
2021/07/16 03:08:08;;;;;;;15.27;5.57;;;;;;;;;;4971788;28;20398;-74
2021/07/16 03:10:37;;;;;;;9.50;5.72;;;;;;;;;;4988304;28;20498;-74
2021/07/16 03:13:06;;;;;;;9.48;6.20;;;;;;;;;;4989454;28;20486;-73
2021/07/16 03:15:32;;;;;;;15.07;5.85;;;;;;;;;;4977876;28;20030;-73
2021/07/16 03:17:57;;;;;;;12.40;6.35;;;;;;;;;;4997344;28;20304;-73
2021/07/16 03:20:28;;;;;;;9.10;6.00;;;;;;;;;;4996488;28;20037;-74
2021/07/16 03:22:54;;;;;;;11.63;5.90;;;;;;;;;;4995918;28;20030;-74
2021/07/16 03:25:21;;;;;;;12.68;5.93;;;;;;;;;;4996235;28;20155;-74
2021/07/16 03:27:47;;;;;;;7.38;5.60;;;;;;;;;;4995885;28;20030;-74
2021/07/16 03:30:16;;;;;;;11.50;6.47;;;;;;;;;;4996237;28;20069;-75
2021/07/16 03:32:42;;;;;;;13.95;6.82;;;;;;;;;;4996304;28;20239;-74
2021/07/16 03:35:09;;;;;;;12.32;6.68;;;;;;;;;;4996039;28;20112;-75
2021/07/16 03:37:35;;;;;;;13.20;6.43;;;;;;;;;;4995923;28;20034;-75
2021/07/16 03:40:02;;;;;;;12.27;5.50;;;;;;;;;;4995757;28;20034;-75
2021/07/16 03:42:28;;;;;;;13.23;6.22;;;;;;;;;;4978969;28;20045;-74
2021/07/16 03:44:53;;;;;;;17.92;7.47;;;;;;;;;;4996435;28;20529;-75
2021/07/16 03:47:20;;;;;;;9.60;6.53;;;;;;;;;;4996047;28;20114;-73
2021/07/16 03:49:45;;;;;;;13.32;6.53;;;;;;;;;;4995988;28;20041;-74
2021/07/16 03:52:12;;;;;;;11.02;5.68;;;;;;;;;;4996073;28;20026;-74
2021/07/16 03:54:38;;;;;;;14.18;6.22;;;;;;;;;;4996220;28;20391;-74
2021/07/16 03:57:04;;;;;;;10.23;5.72;;;;;;;;;;4995767;28;20037;-74
2021/07/16 03:59:31;;;;;;;10.95;5.18;;;;;;;;;;4977983;28;20034;-73
2021/07/16 04:01:56;;;;;;;12.68;6.28;;;;;;;;;;4995726;28;20232;-74
2021/07/16 04:04:22;;;;;;;10.52;6.18;;;;;;;;;;4996010;28;20066;-73
2021/07/16 04:06:54;;;;;;;13.20;6.95;;;;;;;;;;4978110;28;20415;-73
2021/07/16 04:09:31;;;;;;;11.57;6.15;;;;;;;;;;4996073;28;20450;-73
2021/07/16 04:12:04;;;;;;;18.58;5.60;;;;;;;;;;4977828;28;20034;-74
2021/07/16 04:14:39;;;;;;;10.93;6.03;;;;;;;;;;4995429;28;20032;-73
2021/07/16 04:17:07;;;;;;;14.55;5.95;;;;;;;;;;4995363;28;20030;-74
2021/07/16 04:19:33;;;;;;;10.27;5.40;;;;;;;;;;4977898;28;20034;-74
2021/07/16 04:21:59;;;;;;;16.35;5.30;;;;;;;;;;4995708;28;20030;-75
2021/07/16 04:24:25;;;;;;;11.32;5.45;;;;;;;;;;4995734;28;20062;-74
2021/07/16 04:26:50;;;;;;;11.32;5.60;;;;;;;;;;4993568;28;20506;-74
2021/07/16 04:29:16;;;;;;;8.75;5.05;;;;;;;;;;4992495;28;20034;-74
2021/07/16 04:31:41;;;;;;;9.20;5.07;;;;;;;;;;4992340;28;20129;-73
2021/07/16 04:34:07;;;;;;;9.38;5.25;;;;;;;;;;4992397;28;20045;-73
2021/07/16 04:36:32;;;;;;;15.90;5.60;;;;;;;;;;4992572;28;20576;-73
2021/07/16 04:38:58;;;;;;;20.55;6.32;;;;;;;;;;5007233;28;20030;-74
2021/07/16 04:41:23;;;;;;;11.48;6.72;;;;;;;;;;4992475;28;20436;-74
2021/07/16 04:43:49;;;;;;;10.90;6.32;;;;;;;;;;4992241;28;20053;-74
2021/07/16 04:46:14;;;;;;;9.98;6.32;;;;;;;;;;4992190;28;20383;-74
2021/07/16 04:48:39;;;;;;;12.23;5.70;;;;;;;;;;4992231;28;20060;-74
2021/07/16 04:51:05;;;;;;;14.85;6.07;;;;;;;;;;5006812;28;20026;-73
2021/07/16 04:53:30;;;;;;;10.43;6.68;;;;;;;;;;4992209;28;20228;-73
2021/07/16 04:55:56;;;;;;;15.40;7.35;;;;;;;;;;4991684;28;20196;-74
2021/07/16 04:58:21;;;;;;;11.68;7.22;;;;;;;;;;4992141;28;20065;-73
2021/07/16 05:00:47;;;;;;;9.93;5.55;;;;;;;;;;4991901;28;20538;-75
2021/07/16 05:03:12;;;;;;;12.52;6.22;;;;;;;;;;5006850;28;20035;-74
2021/07/16 05:05:38;;;;;;;11.82;7.45;;;;;;;;;;5006750;28;20045;-73
2021/07/16 05:08:04;;;;;;;11.10;6.82;;;;;;;;;;5005852;28;20125;-75
2021/07/16 05:10:29;;;;;;;9.90;6.63;;;;;;;;;;4995011;28;20368;-74
2021/07/16 05:12:55;;;;;;;13.57;6.22;;;;;;;;;;4990982;28;20089;-74
2021/07/16 05:15:20;;;;;;;10.57;5.95;;;;;;;;;;4991344;28;20112;-75
2021/07/16 05:20:21;;;;;;;21.17;6.20;;;;;;;;;;5387106;23;20513;-72
2021/07/16 05:22:48;;;;;;;17.75;6.75;;;;;;;;;;4992208;28;20046;-69
2021/07/16 05:25:13;;;;;;;10.70;6.47;;;;;;;;;;4990861;28;20038;-71
2021/07/16 05:27:39;;;;;;;9.25;5.72;;;;;;;;;;4991228;28;20037;-72
2021/07/16 05:30:05;;;;;;;11.70;5.68;;;;;;;;;;4974328;28;20061;-74
2021/07/16 05:32:31;;;;;;;14.38;6.78;;;;;;;;;;4992205;28;20038;-72
2021/07/16 05:34:56;;;;;;;16.45;6.43;;;;;;;;;;4992046;28;20088;-71
2021/07/16 05:37:22;;;;;;;9.93;5.95;;;;;;;;;;4991186;28;20041;-74
2021/07/16 05:42:23;;;;;;;9.95;6.35;;;;;;;;;;5200807;23;20051;-73
2021/07/16 05:44:48;;;;;;;10.25;5.50;;;;;;;;;;4957097;28;20046;-72
2021/07/16 05:47:14;;;;;;;8.07;5.82;;;;;;;;;;4948579;28;20138;-73
2021/07/16 05:49:40;;;;;;;10.55;6.47;;;;;;;;;;4962651;28;20474;-73
2021/07/16 05:52:05;;;;;;;9.32;5.85;;;;;;;;;;4965289;28;20033;-72
2021/07/16 05:54:31;;;;;;;32.50;8.88;;;;;;;;;;4954084;28;20033;-72
2021/07/16 05:56:56;;;;;;;15.43;6.15;;;;;;;;;;4966589;28;20031;-72
2021/07/16 05:59:22;;;;;;;15.02;5.90;;;;;;;;;;4966005;28;20514;-72
2021/07/16 06:01:47;;;;;;;13.48;6.72;;;;;;;;;;4965026;28;20180;-72
2021/07/16 06:04:13;;;;;;;13.70;6.28;;;;;;;;;;4983105;28;20033;-73
2021/07/16 06:06:39;;;;;;;17.08;8.52;;;;;;;;;;4971054;28;20039;-74
2021/07/16 06:09:06;;;;;;;8.57;6.57;;;;;;;;;;4946379;28;20038;-73
2021/07/16 06:11:32;;;;;;;20.13;7.70;;;;;;;;;;4971081;28;20050;-74
2021/07/16 06:13:59;;;;;;;36.60;8.05;;;;;;;;;;4952034;28;20023;-72
2021/07/16 06:16:24;;;;;;;12.80;5.88;;;;;;;;;;4971281;28;20367;-72
2021/07/16 06:18:50;;;;;;;27.98;6.93;;;;;;;;;;4971032;28;20037;-73
2021/07/16 06:21:16;;;;;;;15.68;6.97;;;;;;;;;;4962380;28;20030;-73
2021/07/16 06:23:41;;;;;;;16.20;7.25;;;;;;;;;;4966518;28;20027;-72
2021/07/16 06:26:07;;;;;;;21.17;11.98;;;;;;;;;;4950848;28;20121;-72
2021/07/16 06:28:32;;;;;;;9.88;7.00;;;;;;;;;;4974812;28;20039;-73
2021/07/16 06:30:58;;;;;;;23.08;9.15;;;;;;;;;;4978575;28;20132;-73
2021/07/16 06:33:23;;;;;;;14.27;6.53;;;;;;;;;;4965679;28;20096;-74
2021/07/16 06:35:49;;;;;;;39.85;18.02;;;;;;;;;;4949068;28;20140;-73
2021/07/16 06:38:14;;;;;;;12.75;7.90;;;;;;;;;;4949629;28;20062;-73
2021/07/16 06:40:40;;;;;;;19.70;8.15;;;;;;;;;;4961110;28;20030;-73
2021/07/16 06:43:09;;;;;;;15.05;7.93;;;;;;;;;;4961684;28;20062;-73
2021/07/16 06:45:36;;;;;;;11.13;7.45;;;;;;;;;;4964173;28;20049;-72
2021/07/16 06:48:02;;;;;;;33.30;13.15;;;;;;;;;;4934124;28;20474;-74
2021/07/16 06:50:28;;;;;;;15.98;7.95;;;;;;;;;;4951842;28;20083;-73
2021/07/16 06:52:55;;;;;;;36.85;6.72;;;;;;;;;;4936873;28;20038;-73
2021/07/16 06:55:20;;;;;;;10.77;7.65;;;;;;;;;;4956609;28;20042;-72
2021/07/16 06:57:47;;;;;;;12.52;6.60;;;;;;;;;;4952458;28;20030;-74
2021/07/16 07:00:13;;;;;;;16.73;7.43;;;;;;;;;;4961045;28;20038;-73
2021/07/16 07:02:39;;;;;;;14.13;8.43;;;;;;;;;;4941126;28;20062;-73
2021/07/16 07:05:06;;;;;;;15.23;7.05;;;;;;;;;;4950851;28;20121;-74
2021/07/16 07:07:31;;;;;;;12.82;6.60;;;;;;;;;;4952719;28;20042;-74
2021/07/16 07:09:57;;;;;;;13.30;6.50;;;;;;;;;;4949413;29;20035;-73
2021/07/16 07:12:22;;;;;;;14.93;7.50;;;;;;;;;;4932185;29;20031;-74
2021/07/16 07:14:48;;;;;;;12.13;7.30;;;;;;;;;;4932482;29;20031;-75
2021/07/16 07:17:13;;;;;;;12.85;7.75;;;;;;;;;;4933157;29;20559;-73
2021/07/16 07:19:39;;;;;;;25.92;8.32;;;;;;;;;;4933047;29;20031;-74
2021/07/16 07:22:05;;;;;;;18.00;8.43;;;;;;;;;;4933305;29;20105;-74
2021/07/16 07:24:30;;;;;;;15.27;7.00;;;;;;;;;;4950505;29;20062;-74
2021/07/16 07:26:57;;;;;;;16.38;7.88;;;;;;;;;;4933544;29;20029;-73
2021/07/16 07:29:24;;;;;;;13.85;6.95;;;;;;;;;;4948959;29;20745;-74
2021/07/16 07:31:49;;;;;;;16.13;7.13;;;;;;;;;;4933091;29;20031;-74
2021/07/16 07:34:15;;;;;;;12.75;6.88;;;;;;;;;;4949717;29;20132;-73
2021/07/16 07:36:41;;;;;;;11.88;6.43;;;;;;;;;;4932818;29;20233;-74
2021/07/16 07:39:08;;;;;;;18.52;8.20;;;;;;;;;;4949166;28;20089;-73
2021/07/16 07:41:33;;;;;;;19.70;7.30;;;;;;;;;;4981462;28;20054;-73
2021/07/16 07:43:59;;;;;;;13.85;7.30;;;;;;;;;;4988641;28;20295;-73
2021/07/16 07:46:25;;;;;;;20.10;7.10;;;;;;;;;;4971487;28;20023;-73
2021/07/16 07:48:51;;;;;;;14.05;7.43;;;;;;;;;;4988274;28;20061;-74
2021/07/16 07:51:16;;;;;;;12.90;6.97;;;;;;;;;;4971571;28;20045;-74
2021/07/16 07:53:42;;;;;;;15.90;7.07;;;;;;;;;;4988568;28;20401;-74
2021/07/16 07:56:07;;;;;;;14.23;8.85;;;;;;;;;;4988435;28;20473;-73
2021/07/16 07:58:33;;;;;;;18.00;8.27;;;;;;;;;;4987856;28;20389;-74
2021/07/16 08:00:58;;;;;;;20.13;7.78;;;;;;;;;;4953955;28;20077;-73
2021/07/16 08:03:24;;;;;;;13.02;7.55;;;;;;;;;;4969748;28;20039;-74
2021/07/16 08:05:50;;;;;;;13.63;9.10;;;;;;;;;;4954842;29;20103;-75
2021/07/16 08:08:16;;;;;;;22.02;8.98;;;;;;;;;;4966246;28;20076;-74
2021/07/16 08:10:41;;;;;;;14.82;7.88;;;;;;;;;;4964252;28;20058;-73
2021/07/16 08:13:08;;;;;;;11.70;8.38;;;;;;;;;;4948117;29;20027;-73
2021/07/16 08:15:34;;;;;;;15.35;8.65;;;;;;;;;;4954802;29;20646;-74
2021/07/16 08:18:00;;;;;;;17.02;8.30;;;;;;;;;;4953497;29;20110;-73
2021/07/16 08:20:25;;;;;;;17.98;8.50;;;;;;;;;;4963315;28;20026;-73
2021/07/16 08:22:51;;;;;;;11.35;7.38;;;;;;;;;;4966960;28;20037;-74
2021/07/16 08:25:17;;;;;;;14.73;7.95;;;;;;;;;;4972090;28;20110;-75
2021/07/16 08:27:44;;;;;;;16.77;8.38;;;;;;;;;;4956329;28;20089;-74
2021/07/16 08:30:10;;;;;;;13.88;9.02;;;;;;;;;;4954001;28;20018;-73
2021/07/16 08:32:36;;;;;;;18.58;8.75;;;;;;;;;;4969344;28;20046;-73
2021/07/16 08:35:04;;;;;;;14.40;8.25;;;;;;;;;;4965568;28;20494;-72
2021/07/16 08:37:29;;;;;;;11.77;8.27;;;;;;;;;;4972770;28;20041;-73
2021/07/16 08:39:57;;;;;;;12.48;8.90;;;;;;;;;;4958727;28;20407;-73
2021/07/16 08:42:25;;;;;;;12.32;7.95;;;;;;;;;;4975651;28;20054;-74
2021/07/16 08:44:52;;;;;;;15.23;8.18;;;;;;;;;;4981767;28;20088;-73
2021/07/16 08:47:19;;;;;;;14.43;8.60;;;;;;;;;;4967203;28;20025;-73
2021/07/16 08:49:45;;;;;;;14.05;8.38;;;;;;;;;;4972796;28;20069;-74
2021/07/16 08:52:12;;;;;;;15.02;8.07;;;;;;;;;;4956741;28;20027;-74
2021/07/16 08:54:45;;;;;;;14.30;8.57;;;;;;;;;;4972334;28;20030;-74
2021/07/16 08:57:13;;;;;;;14.48;8.25;;;;;;;;;;4966177;28;20074;-73
2021/07/16 08:59:39;;;;;;;11.65;7.75;;;;;;;;;;4952477;28;20522;-74
2021/07/16 09:02:05;;;;;;;14.45;7.82;;;;;;;;;;4938740;28;20115;-75
2021/07/16 09:04:36;;;;;;;22.55;9.10;;;;;;;;;;4967231;28;20034;-75
2021/07/16 09:07:03;;;;;;;44.08;9.40;;;;;;;;;;4954656;28;20030;-73
2021/07/16 09:09:40;;;;;;;18.40;9.85;;;;;;;;;;4955563;28;20121;-73
2021/07/16 09:12:12;;;;;;;17.08;8.88;;;;;;;;;;4938516;29;20134;-73
2021/07/16 09:14:38;;;;;;;14.80;8.43;;;;;;;;;;4957733;28;20034;-73
2021/07/16 09:17:15;;;;;;;17.38;9.00;;;;;;;;;;4972213;28;20031;-73
2021/07/16 09:19:45;;;;;;;14.98;8.50;;;;;;;;;;4955777;28;20027;-76
2021/07/16 09:22:16;;;;;;;10.23;7.97;;;;;;;;;;4973378;28;20066;-73
2021/07/16 09:24:49;;;;;;;24.52;9.10;;;;;;;;;;4969912;28;20034;-73
2021/07/16 09:27:32;;;;;;;10.65;8.50;;;;;;;;;;4969480;28;20023;-73
2021/07/16 09:30:21;;;;;;;12.63;9.07;;;;;;;;;;4953168;28;20117;-73
2021/07/16 09:33:05;;;;;;;11.60;9.05;;;;;;;;;;4954178;28;20081;-72
2021/07/16 09:35:33;;;;;;;13.02;8.85;;;;;;;;;;4953982;28;20030;-73
2021/07/16 09:37:59;;;;;;;17.92;9.85;;;;;;;;;;4961374;28;20346;-73
2021/07/16 09:40:29;;;;;;;12.23;9.38;;;;;;;;;;4973259;28;20053;-73
2021/07/16 09:43:11;;;;;;;9.93;8.65;;;;;;;;;;4973438;28;20165;-73
2021/07/16 09:45:38;;;;;;;23.75;10.75;;;;;;;;;;4973802;28;20030;-73
2021/07/16 09:48:26;;;;;;;16.83;10.75;;;;;;;;;;4986555;28;20083;-73
2021/07/16 09:51:21;;;;;;;20.73;10.18;;;;;;;;;;4976366;28;20055;-72
2021/07/16 09:54:02;;;;;;;23.15;11.77;;;;;;;;;;4967864;28;20037;-74
2021/07/16 09:56:30;;;;;;;18.85;12.00;;;;;;;;;;4953732;28;20544;-73
2021/07/16 09:59:09;;;;;;;18.42;12.05;;;;;;;;;;4969717;28;20031;-73
2021/07/16 10:01:37;;;;;;;23.30;12.68;;;;;;;;;;4971892;28;20030;-73
2021/07/16 10:04:23;;;;;;;21.83;13.27;;;;;;;;;;4971329;28;20058;-73
2021/07/16 10:06:50;;;;;;;16.77;12.43;;;;;;;;;;4953969;28;20023;-73
2021/07/16 10:09:18;;;;;;;18.40;10.63;;;;;;;;;;4970738;28;20031;-73
2021/07/16 10:11:48;;;;;;;24.48;11.40;;;;;;;;;;4971123;28;20464;-73
2021/07/16 10:14:15;;;;;;;17.17;11.60;;;;;;;;;;4953406;28;20030;-73
2021/07/16 10:16:44;;;;;;;22.10;13.27;;;;;;;;;;4971215;28;20034;-74
2021/07/16 10:19:12;;;;;;;21.17;10.98;;;;;;;;;;4952022;28;20026;-74
2021/07/16 10:21:37;;;;;;;16.67;10.90;;;;;;;;;;4951889;28;20033;-74
2021/07/16 10:24:04;;;;;;;18.80;12.85;;;;;;;;;;4951832;28;20537;-74
2021/07/16 10:26:30;;;;;;;15.02;11.18;;;;;;;;;;4952261;28;20034;-74
2021/07/16 10:28:55;;;;;;;18.88;10.63;;;;;;;;;;4952310;28;20035;-73
2021/07/16 10:31:33;;;;;;;80.07;16.88;;;;;;;;;;4970027;28;20041;-72
2021/07/16 10:34:27;;;;;;;18.38;10.13;;;;;;;;;;4953844;28;20033;-73
2021/07/16 10:36:59;;;;;;;18.85;11.05;;;;;;;;;;4952571;28;20042;-73
2021/07/16 10:39:46;;;;;;;14.68;10.35;;;;;;;;;;4952672;28;20039;-74
2021/07/16 10:42:30;;;;;;;22.55;16.63;;;;;;;;;;4970602;28;20081;-74
2021/07/16 10:45:03;;;;;;;17.42;9.90;;;;;;;;;;4955965;28;20081;-74
2021/07/16 10:47:33;;;;;;;20.95;10.93;;;;;;;;;;4945736;28;20051;-72
2021/07/16 10:50:03;;;;;;;19.88;12.13;;;;;;;;;;4967830;28;20482;-73
2021/07/16 10:52:49;;;;;;;19.65;10.85;;;;;;;;;;4966326;28;20039;-72
2021/07/16 10:55:20;;;;;;;17.77;11.05;;;;;;;;;;4949987;28;20475;-74
2021/07/16 10:57:48;;;;;;;20.27;11.18;;;;;;;;;;4947214;28;20038;-73
2021/07/16 11:00:36;;;;;;;16.70;11.32;;;;;;;;;;4971190;28;20167;-73
2021/07/16 11:03:13;;;;;;;15.60;10.82;;;;;;;;;;4971417;28;20035;-73
2021/07/16 11:05:39;;;;;;;17.35;11.02;;;;;;;;;;4970612;28;20118;-73
2021/07/16 11:08:23;;;;;;;18.98;10.52;;;;;;;;;;4968261;28;20022;-74
2021/07/16 11:10:50;;;;;;;15.23;10.68;;;;;;;;;;4962093;28;20035;-73
2021/07/16 11:13:40;;;;;;;20.05;11.02;;;;;;;;;;4966124;28;20118;-73
2021/07/16 11:16:15;;;;;;;17.20;11.30;;;;;;;;;;4953878;28;20479;-74
2021/07/16 11:18:54;;;;;;;14.90;8.80;;;;;;;;;;4966403;28;20039;-74
2021/07/16 11:21:42;;;;;;;22.73;9.15;;;;;;;;;;4934940;28;20025;-73
2021/07/16 11:24:31;;;;;;;24.13;10.27;;;;;;;;;;4934598;28;20035;-74
2021/07/16 11:27:08;;;;;;;14.80;10.75;;;;;;;;;;4971434;28;20022;-73
2021/07/16 11:29:41;;;;;;;21.20;11.05;;;;;;;;;;4952975;28;20474;-73
2021/07/16 11:32:20;;;;;;;18.10;10.98;;;;;;;;;;4943384;28;20053;-73
2021/07/16 11:35:07;;;;;;;26.08;10.30;;;;;;;;;;4961128;28;20031;-73
2021/07/16 11:37:52;;;;;;;25.02;11.20;;;;;;;;;;4956099;28;20027;-74
2021/07/16 11:40:27;;;;;;;21.77;10.27;;;;;;;;;;4970485;28;20092;-73
2021/07/16 11:42:55;;;;;;;18.95;10.90;;;;;;;;;;4967378;28;20079;-75
2021/07/16 11:45:29;;;;;;;17.65;10.20;;;;;;;;;;4955387;28;20577;-74
2021/07/16 11:47:56;;;;;;;18.48;11.10;;;;;;;;;;4953644;29;20075;-72
2021/07/16 11:50:22;;;;;;;16.67;10.02;;;;;;;;;;4949795;28;20293;-73
2021/07/16 11:52:50;;;;;;;13.32;9.18;;;;;;;;;;4969242;28;20034;-73
2021/07/16 11:55:19;;;;;;;13.05;10.23;;;;;;;;;;4956608;28;20126;-73
2021/07/16 11:57:50;;;;;;;18.60;9.38;;;;;;;;;;4972629;28;20035;-74
2021/07/16 12:00:16;;;;;;;11.60;7.43;;;;;;;;;;4952600;29;20118;-73
2021/07/16 12:02:43;;;;;;;23.08;9.88;;;;;;;;;;4953403;29;20110;-73
2021/07/16 12:05:11;;;;;;;17.52;8.52;;;;;;;;;;4966544;28;20023;-74
2021/07/16 12:07:39;;;;;;;17.38;8.73;;;;;;;;;;4937552;29;20111;-74
2021/07/16 12:10:12;;;;;;;13.20;7.65;;;;;;;;;;4955783;28;20058;-73
2021/07/16 12:12:38;;;;;;;21.30;8.82;;;;;;;;;;4938277;28;20031;-74
2021/07/16 12:15:22;;;;;;;16.02;8.95;;;;;;;;;;4942721;29;20121;-74
2021/07/16 12:17:52;;;;;;;14.32;7.75;;;;;;;;;;4951466;28;20051;-73
2021/07/16 12:20:20;;;;;;;16.23;8.65;;;;;;;;;;4952716;29;20418;-74
2021/07/16 12:22:47;;;;;;;14.10;8.30;;;;;;;;;;4971974;28;20039;-74
2021/07/16 12:25:14;;;;;;;12.55;8.15;;;;;;;;;;4944046;28;20031;-74
2021/07/16 12:27:40;;;;;;;13.80;8.95;;;;;;;;;;4947170;28;20118;-74
2021/07/16 12:30:11;;;;;;;12.85;7.38;;;;;;;;;;4969050;28;20055;-74
2021/07/16 12:32:38;;;;;;;;;;;;;;;;;;4955427;28;20034;-73
2021/07/16 12:35:18;;;;;;;16.58;7.85;;;;;;;;;;4964070;28;20273;-75
2021/07/16 12:37:44;;;;;;;17.92;8.35;;;;;;;;;;4954991;28;20487;-73
2021/07/16 12:40:25;;;;;;;14.93;7.78;;;;;;;;;;4959487;28;20510;-73
2021/07/16 12:43:16;;;;;;;11.60;7.70;;;;;;;;;;4958212;28;20074;-73
2021/07/16 12:45:55;;;;;;;11.55;7.32;;;;;;;;;;4950276;28;20037;-73
2021/07/16 12:48:27;;;;;;;14.68;8.15;;;;;;;;;;4968347;28;20035;-73
2021/07/16 12:51:04;;;;;;;10.75;7.82;;;;;;;;;;4969885;28;20054;-75
2021/07/16 12:53:33;;;;;;;8.20;6.72;;;;;;;;;;4971955;28;20031;-75
2021/07/16 12:56:17;;;;;;;14.90;8.55;;;;;;;;;;4955630;28;20031;-75
2021/07/16 12:58:44;;;;;;;9.73;6.75;;;;;;;;;;4972456;28;20031;-74
2021/07/16 13:01:11;;;;;;;17.05;9.63;;;;;;;;;;4960824;28;20030;-75
2021/07/16 13:03:41;;;;;;;9.80;6.82;;;;;;;;;;4946626;28;20185;-75
2021/07/16 13:06:18;;;;;;;16.70;7.82;;;;;;;;;;4954079;28;20031;-75
2021/07/16 13:09:03;;;;;;;10.88;7.45;;;;;;;;;;4954668;28;20027;-74
2021/07/16 13:11:29;;;;;;;12.75;8.85;;;;;;;;;;4954188;28;20418;-74
2021/07/16 13:13:54;;;;;;;15.63;8.85;;;;;;;;;;4972012;28;20456;-74
2021/07/16 13:16:22;;;;;;;14.30;9.20;;;;;;;;;;4954242;28;20394;-75
2021/07/16 13:18:50;;;;;;;14.88;9.02;;;;;;;;;;4972257;28;20109;-74
2021/07/16 13:21:18;;;;;;;18.67;9.95;;;;;;;;;;4953843;28;20120;-74
2021/07/16 13:23:46;;;;;;;14.00;9.10;;;;;;;;;;4954355;28;20027;-73
2021/07/16 13:26:13;;;;;;;15.52;8.70;;;;;;;;;;4953853;28;20081;-74
2021/07/16 13:28:40;;;;;;;16.65;10.00;;;;;;;;;;4954394;28;20125;-76
2021/07/16 13:31:07;;;;;;;21.95;10.55;;;;;;;;;;4971551;28;20042;-75
2021/07/16 13:33:34;;;;;;;18.42;9.93;;;;;;;;;;4971532;28;20026;-74
2021/07/16 13:35:59;;;;;;;15.68;9.70;;;;;;;;;;4953468;28;20027;-74
2021/07/16 13:38:32;;;;;;;16.67;8.25;;;;;;;;;;4971337;28;20030;-74
2021/07/16 13:41:04;;;;;;;16.10;8.70;;;;;;;;;;4953734;28;20050;-75
2021/07/16 13:43:30;;;;;;;18.23;7.35;;;;;;;;;;4954107;28;20026;-75
2021/07/16 13:45:56;;;;;;;18.58;8.63;;;;;;;;;;4970099;28;20434;-75
2021/07/16 13:48:23;;;;;;;13.35;6.90;;;;;;;;;;4953606;28;20391;-76
2021/07/16 13:50:49;;;;;;;11.70;7.55;;;;;;;;;;4971598;28;20370;-74
2021/07/16 13:53:15;;;;;;;7.18;6.18;;;;;;;;;;4953566;28;20038;-75
2021/07/16 13:55:41;;;;;;;13.52;7.68;;;;;;;;;;4953610;28;20023;-75
2021/07/16 13:58:06;;;;;;;13.60;6.72;;;;;;;;;;4970976;28;20329;-75
2021/07/16 14:00:32;;;;;;;19.90;7.97;;;;;;;;;;4970744;28;20038;-75
2021/07/16 14:02:57;;;;;;;9.07;6.05;;;;;;;;;;4953902;28;20058;-75
2021/07/16 14:05:23;;;;;;;13.40;6.75;;;;;;;;;;4954037;28;20221;-73
2021/07/16 14:07:51;;;;;;;11.38;8.32;;;;;;;;;;4953530;28;20062;-75
2021/07/16 14:10:18;;;;;;;11.75;7.03;;;;;;;;;;4953163;28;20455;-74
2021/07/16 14:12:44;;;;;;;12.88;7.90;;;;;;;;;;4953013;28;20030;-74
2021/07/16 14:15:11;;;;;;;11.32;6.78;;;;;;;;;;4953236;28;20111;-74
2021/07/16 14:17:38;;;;;;;11.25;6.72;;;;;;;;;;4969340;28;20406;-73
2021/07/16 14:20:05;;;;;;;9.77;6.57;;;;;;;;;;4970979;28;20039;-74
2021/07/16 14:22:33;;;;;;;11.30;6.57;;;;;;;;;;4970886;28;20555;-74
2021/07/16 14:25:00;;;;;;;8.13;6.18;;;;;;;;;;4953627;28;20549;-76
2021/07/16 14:27:26;;;;;;;10.43;6.68;;;;;;;;;;4970540;28;20383;-75
2021/07/16 14:29:51;;;;;;;10.57;6.80;;;;;;;;;;4969839;28;20038;-75
2021/07/16 14:32:17;;;;;;;9.57;6.75;;;;;;;;;;4970528;28;20030;-74
2021/07/16 14:34:43;;;;;;;11.82;6.90;;;;;;;;;;4953138;28;20034;-75
2021/07/16 14:37:09;;;;;;;11.30;7.30;;;;;;;;;;4953431;28;20042;-74
2021/07/16 14:39:35;;;;;;;16.27;7.20;;;;;;;;;;4952847;28;20371;-75
2021/07/16 14:42:01;;;;;;;11.82;7.18;;;;;;;;;;4952809;28;20089;-74
2021/07/16 14:44:26;;;;;;;10.05;6.75;;;;;;;;;;4952826;28;20491;-74